createdAt,value
2022-11-20T00:01:58.061Z,1.51
2022-11-20T00:06:59.499Z,1.54
2022-11-20T00:12:00.849Z,1.56
2022-11-20T00:17:02.218Z,1.46
2022-11-20T00:22:03.538Z,1.42
2022-11-20T00:27:04.875Z,1.52
2022-11-20T00:32:06.245Z,1.55
2022-11-20T00:37:07.601Z,1.45
2022-11-20T00:42:09.027Z,1.42
2022-11-20T00:47:10.810Z,1.42
2022-11-20T00:52:12.126Z,1.45
2022-11-20T00:57:13.705Z,1.54
2022-11-20T01:02:17.278Z,1.57
2022-11-20T01:07:18.633Z,1.61
2022-11-20T01:12:20.070Z,1.61
2022-11-20T01:17:21.393Z,1.60
2022-11-20T01:22:22.728Z,1.57
2022-11-20T01:27:24.252Z,1.48
2022-11-20T01:32:25.554Z,1.49
2022-11-20T01:37:26.954Z,1.47
2022-11-20T01:42:47.017Z,1.49
2022-11-20T01:47:50.272Z,1.59
2022-11-20T01:53:01.320Z,1.53
2022-11-20T01:58:03.571Z,1.55
2022-11-20T02:03:07.506Z,1.49
2022-11-20T02:08:09.103Z,1.50
2022-11-20T02:13:28.967Z,1.52
2022-11-20T02:18:30.925Z,1.54
2022-11-20T02:23:51.194Z,1.54
2022-11-20T02:28:52.644Z,1.49
2022-11-20T02:33:58.085Z,1.55
2022-11-20T02:38:59.469Z,1.57
2022-11-20T02:44:01.173Z,1.69
2022-11-20T02:49:03.522Z,1.70
2022-11-20T02:54:04.962Z,1.67
2022-11-20T02:59:06.341Z,1.66
2022-11-20T03:04:07.671Z,1.66
2022-11-20T03:09:09.143Z,1.72
2022-11-20T03:14:10.454Z,1.63
2022-11-20T03:19:12.588Z,1.65
2022-11-20T03:24:14.113Z,1.70
2022-11-20T03:29:15.421Z,1.76
2022-11-20T03:34:16.743Z,1.76
2022-11-20T03:39:18.198Z,1.74
2022-11-20T03:44:22.041Z,1.79
2022-11-20T03:49:23.567Z,1.80
2022-11-20T03:54:25.070Z,1.89
2022-11-20T03:59:26.382Z,1.87
2022-11-20T04:04:27.714Z,1.83
2022-11-20T04:09:29.113Z,1.72
2022-11-20T04:14:30.436Z,1.72
2022-11-20T04:19:31.780Z,1.76
2022-11-20T04:24:33.091Z,1.81
2022-11-20T04:29:34.477Z,1.81
2022-11-20T04:34:35.817Z,1.82
2022-11-20T04:39:37.149Z,1.87
2022-11-20T04:44:38.529Z,1.83
2022-11-20T04:49:39.912Z,1.88
2022-11-20T04:54:41.261Z,1.93
2022-11-20T04:59:42.589Z,1.93
2022-11-20T05:04:44.205Z,1.95
2022-11-20T05:09:45.537Z,1.97
2022-11-20T05:14:46.933Z,1.93
2022-11-20T05:19:53.012Z,1.93
2022-11-20T05:24:54.608Z,1.93
2022-11-20T05:29:55.906Z,1.98
2022-11-20T05:34:57.235Z,1.94
2022-11-20T05:39:58.707Z,2.00
2022-11-20T05:45:00.549Z,1.98
2022-11-20T05:50:02.119Z,2.07
2022-11-20T05:55:03.594Z,1.98
2022-11-20T06:00:05.169Z,2.08
2022-11-20T06:05:06.636Z,2.06
2022-11-20T06:10:08.170Z,2.12
2022-11-20T06:15:09.771Z,2.10
2022-11-20T06:20:11.305Z,2.01
2022-11-20T06:25:12.866Z,2.04
2022-11-20T06:30:14.258Z,2.06
2022-11-20T06:35:15.595Z,2.19
2022-11-20T06:40:17.040Z,2.19
2022-11-20T06:45:18.350Z,2.17
2022-11-20T06:50:19.668Z,2.13
2022-11-20T06:55:21.029Z,2.14
2022-11-20T07:00:22.606Z,2.17
2022-11-20T07:05:23.985Z,2.24
2022-11-20T07:10:25.820Z,2.25
2022-11-20T07:15:27.375Z,2.21
2022-11-20T07:20:29.141Z,2.43
2022-11-20T07:25:31.527Z,2.45
2022-11-20T07:30:32.881Z,2.25
2022-11-20T07:35:34.205Z,2.39
2022-11-20T07:40:35.510Z,2.41
2022-11-20T07:45:36.814Z,2.55
2022-11-20T07:50:38.158Z,2.56
2022-11-20T07:55:39.533Z,2.71
2022-11-20T08:00:41.475Z,3.05
2022-11-20T08:05:42.820Z,3.19
2022-11-20T08:10:44.158Z,3.17
2022-11-20T08:15:49.062Z,3.25
2022-11-20T08:20:50.370Z,3.26
2022-11-20T08:25:52.229Z,3.08
2022-11-20T08:30:58.415Z,3.04
2022-11-20T08:36:03.974Z,3.08
2022-11-20T08:41:24.413Z,3.00
2022-11-20T08:46:27.163Z,3.28
2022-11-20T08:51:28.524Z,4.08
2022-11-20T08:56:29.889Z,3.87
2022-11-20T09:01:31.253Z,3.94
2022-11-20T09:06:32.628Z,3.89
2022-11-20T09:11:35.522Z,3.94
2022-11-20T09:16:36.836Z,3.99
2022-11-20T09:21:38.423Z,3.89
2022-11-20T09:26:39.755Z,3.99
2022-11-20T09:31:41.073Z,3.85
2022-11-20T09:36:42.416Z,3.77
2022-11-20T09:41:46.896Z,3.80
2022-11-20T09:46:57.378Z,3.73
2022-11-20T09:52:00.148Z,3.79
2022-11-20T09:57:04.421Z,3.93
2022-11-20T10:02:26.775Z,4.15
2022-11-20T10:07:35.089Z,4.19
2022-11-20T10:12:56.752Z,4.23
2022-11-20T10:18:17.320Z,4.05
2022-11-20T10:23:34.861Z,4.39
2022-11-20T10:28:36.517Z,4.56
2022-11-20T10:34:04.994Z,4.39
2022-11-20T10:39:07.303Z,4.65
2022-11-20T10:44:11.355Z,4.78
2022-11-20T10:49:17.457Z,4.74
2022-11-20T10:54:18.762Z,4.80
2022-11-20T10:59:23.261Z,4.76
2022-11-20T11:04:24.777Z,4.87
2022-11-20T11:09:33.081Z,4.88
2022-11-20T11:14:43.145Z,4.83
2022-11-20T11:19:44.464Z,4.96
2022-11-20T11:24:52.991Z,5.19
2022-11-20T11:30:14.975Z,5.22
2022-11-20T11:35:20.782Z,5.01
2022-11-20T11:40:24.585Z,5.13
2022-11-20T11:45:27.270Z,4.99
2022-11-20T11:50:29.828Z,5.20
2022-11-20T11:55:34.487Z,4.95
2022-11-20T12:00:36.482Z,4.78
2022-11-20T12:06:07.191Z,4.88
2022-11-20T12:11:11.512Z,4.98
2022-11-20T12:16:14.875Z,4.79
2022-11-20T12:21:28.439Z,4.92
2022-11-20T12:26:33.169Z,5.02
2022-11-20T12:31:34.464Z,5.10
2022-11-20T12:36:47.032Z,5.21
2022-11-20T12:42:33.598Z,5.15
2022-11-20T12:47:52.859Z,4.96
2022-11-20T12:52:57.501Z,5.11
2022-11-20T12:58:13.656Z,5.15
2022-11-20T13:03:28.912Z,5.20
2022-11-20T13:08:33.726Z,4.98
2022-11-20T13:13:35.047Z,5.04
2022-11-20T13:18:40.277Z,5.02
2022-11-20T13:23:41.583Z,5.13
2022-11-20T13:28:43.030Z,5.11
2022-11-20T13:33:45.913Z,5.12
2022-11-20T13:38:49.303Z,5.00
2022-11-20T13:43:50.955Z,4.98
2022-11-20T13:48:54.449Z,5.01
2022-11-20T13:54:08.243Z,4.99
2022-11-20T13:59:16.199Z,5.03
2022-11-20T14:04:21.473Z,5.20
2022-11-20T14:09:27.615Z,5.16
2022-11-20T14:14:30.413Z,5.15
2022-11-20T14:19:31.948Z,5.17
2022-11-20T14:24:33.295Z,5.08
2022-11-20T14:29:36.671Z,5.08
2022-11-20T14:34:42.720Z,5.08
2022-11-20T14:39:49.303Z,5.02
2022-11-20T14:44:51.548Z,4.97
2022-11-20T14:49:53.723Z,5.00
2022-11-20T14:54:56.395Z,5.00
2022-11-20T15:00:08.357Z,4.97
2022-11-20T15:05:10.170Z,4.98
2022-11-20T15:10:13.025Z,4.99
2022-11-20T15:15:17.804Z,4.96
2022-11-20T15:20:19.178Z,5.00
2022-11-20T15:25:20.642Z,5.10
2022-11-20T15:30:22.641Z,5.03
2022-11-20T15:35:23.954Z,4.95
2022-11-20T15:40:25.253Z,4.91
2022-11-20T15:45:27.038Z,4.94
2022-11-20T15:50:32.898Z,4.87
2022-11-20T15:55:34.283Z,4.85
2022-11-20T16:00:35.622Z,4.81
2022-11-20T16:05:36.949Z,4.84
2022-11-20T16:10:38.293Z,4.86
2022-11-20T16:15:45.701Z,4.92
2022-11-20T16:20:48.275Z,4.92
2022-11-20T16:25:50.211Z,4.96
2022-11-20T16:30:53.365Z,4.97
2022-11-20T16:35:54.677Z,4.97
2022-11-20T16:41:01.113Z,5.00
2022-11-20T16:46:13.078Z,4.94
2022-11-20T16:51:14.465Z,4.92
2022-11-20T16:56:17.495Z,4.93
2022-11-20T17:01:21.303Z,4.94
2022-11-20T17:06:24.071Z,4.92
2022-11-20T17:11:26.444Z,4.88
2022-11-20T17:16:27.954Z,4.88
2022-11-20T17:21:29.933Z,4.87
2022-11-20T17:26:31.289Z,4.84
2022-11-20T17:31:33.727Z,4.87
2022-11-20T17:36:35.103Z,4.86
2022-11-20T17:41:36.418Z,4.90
2022-11-20T17:46:38.010Z,4.92
2022-11-20T17:51:40.627Z,4.94
2022-11-20T17:57:00.380Z,4.99
2022-11-20T18:02:03.774Z,5.04
2022-11-20T18:07:05.465Z,5.04
2022-11-20T18:12:06.886Z,5.10
2022-11-20T18:17:09.513Z,5.11
2022-11-20T18:22:11.497Z,5.11
2022-11-20T18:27:14.685Z,5.17
2022-11-20T18:32:16.055Z,5.21
2022-11-20T18:37:17.551Z,5.27
2022-11-20T18:42:37.361Z,5.29
2022-11-20T18:47:40.256Z,5.24
2022-11-20T18:52:44.222Z,5.31
2022-11-20T18:57:45.536Z,5.22
2022-11-20T19:02:47.005Z,5.15
2022-11-20T19:07:48.352Z,5.11
2022-11-20T19:12:49.683Z,4.98
2022-11-20T19:17:51.992Z,4.84
2022-11-20T19:22:54.032Z,4.72
2022-11-20T19:27:55.345Z,4.63
2022-11-20T19:32:58.068Z,4.53
2022-11-20T19:38:04.196Z,4.52
2022-11-20T19:43:06.925Z,4.51
2022-11-20T19:48:08.723Z,4.53
2022-11-20T19:53:11.470Z,4.42
2022-11-20T19:58:12.817Z,4.18
2022-11-20T20:03:14.122Z,3.93
2022-11-20T20:08:17.127Z,3.86
2022-11-20T20:13:18.632Z,3.83
2022-11-20T20:18:19.974Z,3.74
2022-11-20T20:23:21.358Z,3.96
2022-11-20T20:28:22.676Z,4.05
2022-11-20T20:33:24.200Z,4.01
2022-11-20T20:38:25.539Z,3.89
2022-11-20T20:43:26.850Z,3.99
2022-11-20T20:48:28.187Z,4.18
2022-11-20T20:53:30.677Z,4.18
2022-11-20T20:58:32.009Z,4.36
2022-11-20T21:03:34.136Z,4.35
2022-11-20T21:08:39.192Z,4.81
2022-11-20T21:13:45.385Z,5.02
2022-11-20T21:18:46.995Z,5.07
2022-11-20T21:23:48.398Z,5.24
2022-11-20T21:28:50.116Z,5.05
2022-11-20T21:33:52.435Z,5.07
2022-11-20T21:38:55.040Z,4.82
2022-11-20T21:49:18.299Z,4.68
2022-11-20T21:54:19.603Z,4.64
2022-11-20T21:59:24.045Z,4.94
2022-11-20T22:04:25.608Z,4.86
2022-11-20T22:09:27.150Z,4.75
2022-11-20T22:14:28.756Z,5.23
2022-11-20T22:19:30.236Z,5.13
2022-11-20T22:24:31.539Z,5.07
2022-11-20T22:29:32.847Z,5.01
2022-11-20T22:34:34.202Z,5.17
2022-11-20T22:39:36.568Z,5.06
2022-11-20T22:44:37.893Z,5.43
2022-11-20T22:49:39.217Z,5.36
2022-11-20T22:54:40.545Z,5.13
2022-11-20T22:59:41.889Z,5.43
2022-11-20T23:04:43.704Z,5.43
2022-11-20T23:09:45.043Z,5.51
2022-11-20T23:14:46.421Z,5.47
2022-11-20T23:19:47.751Z,5.59
2022-11-20T23:24:49.070Z,5.68
2022-11-20T23:29:50.378Z,5.87
2022-11-20T23:34:51.681Z,5.89
2022-11-20T23:39:53.013Z,5.99
2022-11-20T23:44:54.338Z,6.13
2022-11-20T23:49:55.682Z,6.09
2022-11-20T23:54:57.018Z,5.99
2022-11-20T23:59:58.373Z,6.14
